createdAt,value
2018-02-20T00:05:27.436Z,21.00
2018-02-20T00:15:41.843Z,19.67
2018-02-20T00:25:51.503Z,20.23
2018-02-20T00:35:59.688Z,23.93
2018-02-20T00:46:11.274Z,27.47
2018-02-20T00:56:28.094Z,25.00
2018-02-20T01:06:36.756Z,24.17
2018-02-20T01:16:46.428Z,23.10
2018-02-20T01:26:57.083Z,22.20
2018-02-20T01:37:07.290Z,20.67
2018-02-20T01:47:17.320Z,19.17
2018-02-20T01:57:36.209Z,19.63
2018-02-20T02:17:59.978Z,18.30
2018-02-20T02:28:08.576Z,17.80
2018-02-20T02:38:19.794Z,18.00
2018-02-20T02:48:29.688Z,17.57
2018-02-20T02:58:42.444Z,16.93
2018-02-20T03:08:58.980Z,15.50
2018-02-20T03:19:09.090Z,15.40
2018-02-20T03:29:22.339Z,14.60
2018-02-20T03:39:32.632Z,14.73
2018-02-20T03:49:41.899Z,13.67
2018-02-20T03:59:52.047Z,13.80
2018-02-20T04:10:02.423Z,12.77
2018-02-20T04:20:14.837Z,13.40
2018-02-20T04:30:26.447Z,13.13
2018-02-20T04:40:36.125Z,13.33
2018-02-20T04:50:48.990Z,13.40
2018-02-20T05:00:59.088Z,13.30
2018-02-20T05:11:11.142Z,12.43
2018-02-20T05:21:21.019Z,13.10
2018-02-20T05:31:30.083Z,12.37
2018-02-20T05:41:39.474Z,11.53
2018-02-20T05:51:55.022Z,12.47
2018-02-20T06:02:08.244Z,12.40
2018-02-20T06:12:18.580Z,10.73
2018-02-20T06:22:32.764Z,11.60
2018-02-20T06:32:46.942Z,11.30
2018-02-20T06:42:56.059Z,11.27
2018-02-20T06:53:06.471Z,10.70
2018-02-20T07:03:15.442Z,10.30
2018-02-20T07:13:35.344Z,10.90
2018-02-20T07:23:45.497Z,11.00
2018-02-20T07:33:55.373Z,10.80
2018-02-20T07:44:06.204Z,10.73
2018-02-20T07:54:17.013Z,11.17
2018-02-20T08:04:29.256Z,10.90
2018-02-20T08:14:38.635Z,10.63
2018-02-20T08:24:52.447Z,10.70
2018-02-20T08:35:03.483Z,10.47
2018-02-20T08:45:13.055Z,10.40
2018-02-20T08:55:30.412Z,9.70
2018-02-20T09:05:44.598Z,9.83
2018-02-20T09:15:56.064Z,9.73
2018-02-20T09:26:06.555Z,9.47
2018-02-20T09:36:21.919Z,9.57
2018-02-20T09:46:36.102Z,9.73
2018-02-20T09:56:44.522Z,9.53
2018-02-20T10:06:53.163Z,9.40
2018-02-20T10:17:01.198Z,9.33
2018-02-20T10:27:11.018Z,9.23
2018-02-20T10:37:19.875Z,8.90
2018-02-20T10:47:33.127Z,9.03
2018-02-20T10:57:42.989Z,8.00
2018-02-20T11:07:53.405Z,8.07
2018-02-20T11:18:03.527Z,8.47
2018-02-20T11:28:14.167Z,8.00
2018-02-20T11:38:27.685Z,7.53
2018-02-20T11:48:36.528Z,7.77
2018-02-20T11:58:46.020Z,7.50
2018-02-20T12:08:56.359Z,7.27
2018-02-20T12:19:05.735Z,6.70
2018-02-20T12:29:15.452Z,6.90
2018-02-20T12:39:25.733Z,6.67
2018-02-20T12:49:37.485Z,6.53
2018-02-20T12:59:49.026Z,6.67
2018-02-20T13:10:01.444Z,6.97
2018-02-20T13:20:13.787Z,6.90
2018-02-20T13:30:25.532Z,6.47
2018-02-20T13:40:36.016Z,7.17
2018-02-20T13:50:43.983Z,6.90
2018-02-20T14:00:52.835Z,6.80
2018-02-20T14:11:01.667Z,6.93
2018-02-20T14:21:11.644Z,7.03
2018-02-20T14:31:21.700Z,7.20
2018-02-20T14:41:32.647Z,7.57
2018-02-20T14:51:41.493Z,7.50
2018-02-20T15:12:45.063Z,7.60
2018-02-20T15:22:59.634Z,7.97
2018-02-20T15:33:10.053Z,8.17
2018-02-20T15:43:22.028Z,8.27
2018-02-20T15:53:33.475Z,8.27
2018-02-20T16:03:43.754Z,8.50
2018-02-20T16:14:09.824Z,8.67
2018-02-20T16:34:28.515Z,9.17
2018-02-20T16:44:41.919Z,8.77
2018-02-20T16:54:50.366Z,8.47
2018-02-20T17:04:58.420Z,8.97
2018-02-20T17:25:17.530Z,8.37
2018-02-20T17:49:52.810Z,8.33
2018-02-20T18:00:01.829Z,8.97
2018-02-20T18:10:11.584Z,8.97
2018-02-20T18:20:24.757Z,10.30
2018-02-20T18:30:33.997Z,10.80
2018-02-20T18:40:43.699Z,10.57
2018-02-20T18:50:51.968Z,9.80
2018-02-20T19:01:01.748Z,9.47
2018-02-20T19:11:11.551Z,9.80
2018-02-20T19:21:28.374Z,10.13
2018-02-20T19:31:42.576Z,10.20
2018-02-20T19:41:52.645Z,11.07
2018-02-20T19:52:04.041Z,11.43
2018-02-20T20:02:12.050Z,11.40
2018-02-20T20:12:23.761Z,12.10
2018-02-20T20:22:33.353Z,11.80
2018-02-20T20:32:43.315Z,11.93
2018-02-20T20:42:52.453Z,12.03
2018-02-20T20:53:04.704Z,12.10
2018-02-20T21:03:20.190Z,11.43
2018-02-20T21:13:29.412Z,11.80
2018-02-20T21:23:37.491Z,11.83
2018-02-20T21:33:46.466Z,11.87
2018-02-20T21:43:56.237Z,12.43
2018-02-20T21:54:06.017Z,12.07
2018-02-20T22:04:14.246Z,10.80
2018-02-20T22:14:29.461Z,11.00
2018-02-20T22:24:43.811Z,10.73
2018-02-20T22:34:55.561Z,11.53
2018-02-20T22:45:03.596Z,11.33
2018-02-20T22:55:15.840Z,11.80
2018-02-20T23:05:26.927Z,11.27
2018-02-20T23:15:35.557Z,11.27
2018-02-20T23:25:44.484Z,11.27
2018-02-20T23:35:53.370Z,11.47
2018-02-20T23:46:09.642Z,11.63
2018-02-20T23:56:23.676Z,10.63
